sensor_id;sensor_type;location;lat;lon;timestamp;temperature;humidity
22765;DHT22;11549;50.852;3.816;2022-10-16T00:01:26;14.50;99.90
22765;DHT22;11549;50.852;3.816;2022-10-16T00:03:55;14.50;99.90
22765;DHT22;11549;50.852;3.816;2022-10-16T00:06:24;14.50;99.90
22765;DHT22;11549;50.852;3.816;2022-10-16T00:08:53;14.50;99.90
22765;DHT22;11549;50.852;3.816;2022-10-16T00:11:23;14.50;99.90
22765;DHT22;11549;50.852;3.816;2022-10-16T00:13:56;14.40;99.90
22765;DHT22;11549;50.852;3.816;2022-10-16T00:16:25;14.50;99.90
22765;DHT22;11549;50.852;3.816;2022-10-16T00:18:54;14.30;99.90
22765;DHT22;11549;50.852;3.816;2022-10-16T00:21:25;14.40;99.90
22765;DHT22;11549;50.852;3.816;2022-10-16T00:23:56;14.50;99.90
22765;DHT22;11549;50.852;3.816;2022-10-16T00:26:27;14.50;99.90
22765;DHT22;11549;50.852;3.816;2022-10-16T00:28:57;14.50;99.90
22765;DHT22;11549;50.852;3.816;2022-10-16T00:31:26;14.50;99.90
22765;DHT22;11549;50.852;3.816;2022-10-16T00:33:54;14.40;99.90
22765;DHT22;11549;50.852;3.816;2022-10-16T00:36:25;14.40;99.90
22765;DHT22;11549;50.852;3.816;2022-10-16T00:38:54;14.40;99.90
22765;DHT22;11549;50.852;3.816;2022-10-16T00:41:25;14.40;99.90
22765;DHT22;11549;50.852;3.816;2022-10-16T00:43:55;14.30;99.90
22765;DHT22;11549;50.852;3.816;2022-10-16T00:46:27;14.20;99.90
22765;DHT22;11549;50.852;3.816;2022-10-16T00:49:01;14.30;99.90
22765;DHT22;11549;50.852;3.816;2022-10-16T00:51:32;14.30;99.90
22765;DHT22;11549;50.852;3.816;2022-10-16T00:54:02;14.30;99.90
22765;DHT22;11549;50.852;3.816;2022-10-16T00:56:32;14.30;99.90
22765;DHT22;11549;50.852;3.816;2022-10-16T00:59:04;14.30;99.90
22765;DHT22;11549;50.852;3.816;2022-10-16T01:01:37;14.30;99.90
22765;DHT22;11549;50.852;3.816;2022-10-16T01:04:05;14.40;99.90
22765;DHT22;11549;50.852;3.816;2022-10-16T01:06:39;14.30;99.90
22765;DHT22;11549;50.852;3.816;2022-10-16T01:09:16;14.30;99.90
22765;DHT22;11549;50.852;3.816;2022-10-16T01:11:54;14.30;99.90
22765;DHT22;11549;50.852;3.816;2022-10-16T01:14:31;14.20;99.90
22765;DHT22;11549;50.852;3.816;2022-10-16T01:17:07;14.30;99.90
22765;DHT22;11549;50.852;3.816;2022-10-16T01:22:43;14.30;99.90
22765;DHT22;11549;50.852;3.816;2022-10-16T01:25:31;14.20;99.90
22765;DHT22;11549;50.852;3.816;2022-10-16T01:28:09;14.20;99.90
22765;DHT22;11549;50.852;3.816;2022-10-16T01:30:40;14.20;99.90
22765;DHT22;11549;50.852;3.816;2022-10-16T01:33:13;14.10;99.90
22765;DHT22;11549;50.852;3.816;2022-10-16T01:35:47;14.00;99.90
22765;DHT22;11549;50.852;3.816;2022-10-16T01:38:19;14.10;99.90
22765;DHT22;11549;50.852;3.816;2022-10-16T01:40:52;14.10;99.90
22765;DHT22;11549;50.852;3.816;2022-10-16T01:43:26;14.10;99.90
22765;DHT22;11549;50.852;3.816;2022-10-16T01:45:56;14.10;99.90
22765;DHT22;11549;50.852;3.816;2022-10-16T01:48:25;14.10;99.90
22765;DHT22;11549;50.852;3.816;2022-10-16T01:50:57;14.00;99.90
22765;DHT22;11549;50.852;3.816;2022-10-16T01:53:27;14.00;99.90
22765;DHT22;11549;50.852;3.816;2022-10-16T01:55:58;14.00;99.90
22765;DHT22;11549;50.852;3.816;2022-10-16T01:58:29;14.00;99.90
22765;DHT22;11549;50.852;3.816;2022-10-16T02:01:02;14.10;99.90
22765;DHT22;11549;50.852;3.816;2022-10-16T02:03:32;14.20;99.90
22765;DHT22;11549;50.852;3.816;2022-10-16T02:06:01;14.20;99.90
22765;DHT22;11549;50.852;3.816;2022-10-16T02:08:31;14.20;99.90
22765;DHT22;11549;50.852;3.816;2022-10-16T02:11:00;14.10;99.90
22765;DHT22;11549;50.852;3.816;2022-10-16T02:13:34;14.00;99.90
22765;DHT22;11549;50.852;3.816;2022-10-16T02:16:04;14.00;99.90
22765;DHT22;11549;50.852;3.816;2022-10-16T02:18:32;14.00;99.90
22765;DHT22;11549;50.852;3.816;2022-10-16T02:21:02;14.00;99.90
22765;DHT22;11549;50.852;3.816;2022-10-16T02:23:54;14.10;99.90
22765;DHT22;11549;50.852;3.816;2022-10-16T02:26:28;14.10;99.90
22765;DHT22;11549;50.852;3.816;2022-10-16T02:29:03;14.00;99.90
22765;DHT22;11549;50.852;3.816;2022-10-16T02:31:35;14.20;99.90
22765;DHT22;11549;50.852;3.816;2022-10-16T02:34:06;14.10;99.90
22765;DHT22;11549;50.852;3.816;2022-10-16T02:36:39;14.10;99.90
22765;DHT22;11549;50.852;3.816;2022-10-16T02:39:09;14.00;99.90
22765;DHT22;11549;50.852;3.816;2022-10-16T02:41:38;14.00;99.90
22765;DHT22;11549;50.852;3.816;2022-10-16T02:44:08;14.00;99.90
22765;DHT22;11549;50.852;3.816;2022-10-16T02:46:36;14.00;99.90
22765;DHT22;11549;50.852;3.816;2022-10-16T02:49:05;14.00;99.90
22765;DHT22;11549;50.852;3.816;2022-10-16T02:51:33;13.90;99.90
22765;DHT22;11549;50.852;3.816;2022-10-16T02:54:01;14.00;99.90
22765;DHT22;11549;50.852;3.816;2022-10-16T02:56:30;14.00;99.90
22765;DHT22;11549;50.852;3.816;2022-10-16T02:58:58;14.00;99.90
22765;DHT22;11549;50.852;3.816;2022-10-16T03:01:28;14.00;99.90
22765;DHT22;11549;50.852;3.816;2022-10-16T03:03:56;13.90;99.90
22765;DHT22;11549;50.852;3.816;2022-10-16T03:06:25;14.00;99.90
22765;DHT22;11549;50.852;3.816;2022-10-16T03:08:53;13.90;99.90
22765;DHT22;11549;50.852;3.816;2022-10-16T03:11:21;13.90;99.90
22765;DHT22;11549;50.852;3.816;2022-10-16T03:13:49;13.90;99.90
22765;DHT22;11549;50.852;3.816;2022-10-16T03:16:17;13.80;99.90
22765;DHT22;11549;50.852;3.816;2022-10-16T03:18:49;13.90;99.90
22765;DHT22;11549;50.852;3.816;2022-10-16T03:21:18;13.90;99.90
22765;DHT22;11549;50.852;3.816;2022-10-16T03:23:46;13.80;99.90
22765;DHT22;11549;50.852;3.816;2022-10-16T03:26:14;13.90;99.90
22765;DHT22;11549;50.852;3.816;2022-10-16T03:28:43;14.00;99.90
22765;DHT22;11549;50.852;3.816;2022-10-16T03:31:11;14.00;99.90
22765;DHT22;11549;50.852;3.816;2022-10-16T03:33:39;14.00;99.90
22765;DHT22;11549;50.852;3.816;2022-10-16T03:36:09;14.00;99.90
22765;DHT22;11549;50.852;3.816;2022-10-16T03:38:37;14.10;99.90
22765;DHT22;11549;50.852;3.816;2022-10-16T03:41:05;14.00;99.90
22765;DHT22;11549;50.852;3.816;2022-10-16T03:43:34;13.90;99.90
22765;DHT22;11549;50.852;3.816;2022-10-16T03:46:03;13.80;99.90
22765;DHT22;11549;50.852;3.816;2022-10-16T03:48:31;13.80;99.90
22765;DHT22;11549;50.852;3.816;2022-10-16T03:50:59;13.90;99.90
22765;DHT22;11549;50.852;3.816;2022-10-16T03:53:29;13.90;99.90
22765;DHT22;11549;50.852;3.816;2022-10-16T03:55:57;14.00;99.90
22765;DHT22;11549;50.852;3.816;2022-10-16T03:58:26;14.00;99.90
22765;DHT22;11549;50.852;3.816;2022-10-16T04:00:54;13.90;99.90
22765;DHT22;11549;50.852;3.816;2022-10-16T04:03:22;13.90;99.90
22765;DHT22;11549;50.852;3.816;2022-10-16T04:05:51;13.90;99.90
22765;DHT22;11549;50.852;3.816;2022-10-16T04:08:19;13.90;99.90
22765;DHT22;11549;50.852;3.816;2022-10-16T04:10:49;13.90;99.90
22765;DHT22;11549;50.852;3.816;2022-10-16T04:13:17;13.90;99.90
22765;DHT22;11549;50.852;3.816;2022-10-16T04:15:50;13.90;99.90
22765;DHT22;11549;50.852;3.816;2022-10-16T04:18:19;14.00;99.90
22765;DHT22;11549;50.852;3.816;2022-10-16T04:20:47;13.90;99.90
22765;DHT22;11549;50.852;3.816;2022-10-16T04:23:15;13.80;99.90
22765;DHT22;11549;50.852;3.816;2022-10-16T04:25:44;13.80;99.90
22765;DHT22;11549;50.852;3.816;2022-10-16T04:28:13;13.80;99.90
22765;DHT22;11549;50.852;3.816;2022-10-16T04:30:41;13.80;99.90
22765;DHT22;11549;50.852;3.816;2022-10-16T04:33:10;13.90;99.90
22765;DHT22;11549;50.852;3.816;2022-10-16T04:35:39;13.90;99.90
22765;DHT22;11549;50.852;3.816;2022-10-16T04:38:07;13.90;99.90
22765;DHT22;11549;50.852;3.816;2022-10-16T04:40:36;13.80;99.90
22765;DHT22;11549;50.852;3.816;2022-10-16T04:43:05;13.80;99.90
22765;DHT22;11549;50.852;3.816;2022-10-16T04:45:35;13.80;99.90
22765;DHT22;11549;50.852;3.816;2022-10-16T04:48:03;13.80;99.90
22765;DHT22;11549;50.852;3.816;2022-10-16T04:50:32;13.80;99.90
22765;DHT22;11549;50.852;3.816;2022-10-16T04:53:00;13.80;99.90
22765;DHT22;11549;50.852;3.816;2022-10-16T04:55:28;13.80;99.90
22765;DHT22;11549;50.852;3.816;2022-10-16T04:57:56;13.90;99.90
22765;DHT22;11549;50.852;3.816;2022-10-16T05:00:24;13.80;99.90
22765;DHT22;11549;50.852;3.816;2022-10-16T05:02:54;13.80;99.90
22765;DHT22;11549;50.852;3.816;2022-10-16T05:05:23;13.80;99.90
22765;DHT22;11549;50.852;3.816;2022-10-16T05:07:52;13.80;99.90
22765;DHT22;11549;50.852;3.816;2022-10-16T05:10:20;13.70;99.90
22765;DHT22;11549;50.852;3.816;2022-10-16T05:12:48;13.80;99.90
22765;DHT22;11549;50.852;3.816;2022-10-16T05:15:17;13.80;99.90
22765;DHT22;11549;50.852;3.816;2022-10-16T05:17:46;13.90;99.90
22765;DHT22;11549;50.852;3.816;2022-10-16T05:20:16;13.80;99.90
22765;DHT22;11549;50.852;3.816;2022-10-16T05:22:44;13.80;99.90
22765;DHT22;11549;50.852;3.816;2022-10-16T05:25:12;13.70;99.90
22765;DHT22;11549;50.852;3.816;2022-10-16T05:27:40;13.80;99.90
22765;DHT22;11549;50.852;3.816;2022-10-16T05:30:09;13.80;99.90
22765;DHT22;11549;50.852;3.816;2022-10-16T05:32:38;13.80;99.90
22765;DHT22;11549;50.852;3.816;2022-10-16T05:35:07;13.70;99.90
22765;DHT22;11549;50.852;3.816;2022-10-16T05:37:40;13.70;99.90
22765;DHT22;11549;50.852;3.816;2022-10-16T05:40:09;13.80;99.90
22765;DHT22;11549;50.852;3.816;2022-10-16T05:42:38;13.80;99.90
22765;DHT22;11549;50.852;3.816;2022-10-16T05:45:07;13.80;99.90
22765;DHT22;11549;50.852;3.816;2022-10-16T05:47:37;13.80;99.90
22765;DHT22;11549;50.852;3.816;2022-10-16T05:50:06;13.80;99.90
22765;DHT22;11549;50.852;3.816;2022-10-16T05:52:34;13.90;99.90
22765;DHT22;11549;50.852;3.816;2022-10-16T05:55:05;13.80;99.90
22765;DHT22;11549;50.852;3.816;2022-10-16T05:57:33;13.90;99.90
22765;DHT22;11549;50.852;3.816;2022-10-16T06:00:02;14.00;99.90
22765;DHT22;11549;50.852;3.816;2022-10-16T06:02:30;13.90;99.90
22765;DHT22;11549;50.852;3.816;2022-10-16T06:04:58;13.90;99.90
22765;DHT22;11549;50.852;3.816;2022-10-16T06:07:26;14.00;99.90
22765;DHT22;11549;50.852;3.816;2022-10-16T06:09:55;14.10;99.90
22765;DHT22;11549;50.852;3.816;2022-10-16T06:12:26;14.10;99.90
22765;DHT22;11549;50.852;3.816;2022-10-16T06:14:55;14.10;99.90
22765;DHT22;11549;50.852;3.816;2022-10-16T06:17:23;14.00;99.90
22765;DHT22;11549;50.852;3.816;2022-10-16T06:19:52;14.00;99.90
22765;DHT22;11549;50.852;3.816;2022-10-16T06:22:20;14.00;99.90
22765;DHT22;11549;50.852;3.816;2022-10-16T06:24:48;14.00;99.90
22765;DHT22;11549;50.852;3.816;2022-10-16T06:27:17;13.90;99.90
22765;DHT22;11549;50.852;3.816;2022-10-16T06:29:46;13.90;99.90
22765;DHT22;11549;50.852;3.816;2022-10-16T06:32:15;13.90;99.90
22765;DHT22;11549;50.852;3.816;2022-10-16T06:34:44;14.00;99.90
22765;DHT22;11549;50.852;3.816;2022-10-16T06:37:12;14.00;99.90
22765;DHT22;11549;50.852;3.816;2022-10-16T06:39:40;14.00;99.90
22765;DHT22;11549;50.852;3.816;2022-10-16T06:42:08;14.10;99.90
22765;DHT22;11549;50.852;3.816;2022-10-16T06:44:37;14.00;99.90
22765;DHT22;11549;50.852;3.816;2022-10-16T06:47:06;13.90;99.90
22765;DHT22;11549;50.852;3.816;2022-10-16T06:49:34;13.90;99.90
22765;DHT22;11549;50.852;3.816;2022-10-16T06:52:03;13.90;99.90
22765;DHT22;11549;50.852;3.816;2022-10-16T06:54:31;13.90;99.90
22765;DHT22;11549;50.852;3.816;2022-10-16T06:57:08;13.90;99.90
22765;DHT22;11549;50.852;3.816;2022-10-16T06:59:36;14.10;99.90
22765;DHT22;11549;50.852;3.816;2022-10-16T07:02:06;14.10;99.90
22765;DHT22;11549;50.852;3.816;2022-10-16T07:04:35;14.20;99.90
22765;DHT22;11549;50.852;3.816;2022-10-16T07:07:04;14.20;99.90
22765;DHT22;11549;50.852;3.816;2022-10-16T07:09:35;14.30;99.90
22765;DHT22;11549;50.852;3.816;2022-10-16T07:12:04;14.30;99.90
22765;DHT22;11549;50.852;3.816;2022-10-16T07:14:32;14.50;99.90
22765;DHT22;11549;50.852;3.816;2022-10-16T07:17:00;14.60;99.90
22765;DHT22;11549;50.852;3.816;2022-10-16T07:19:30;14.70;99.90
22765;DHT22;11549;50.852;3.816;2022-10-16T07:22:00;14.90;99.90
22765;DHT22;11549;50.852;3.816;2022-10-16T07:24:29;15.10;99.90
22765;DHT22;11549;50.852;3.816;2022-10-16T07:26:58;15.60;99.90
22765;DHT22;11549;50.852;3.816;2022-10-16T07:29:26;15.90;99.90
22765;DHT22;11549;50.852;3.816;2022-10-16T07:31:54;16.40;99.90
22765;DHT22;11549;50.852;3.816;2022-10-16T07:34:23;16.90;99.90
22765;DHT22;11549;50.852;3.816;2022-10-16T07:36:54;17.60;99.90
22765;DHT22;11549;50.852;3.816;2022-10-16T07:39:22;18.10;99.90
22765;DHT22;11549;50.852;3.816;2022-10-16T07:41:51;18.60;99.90
22765;DHT22;11549;50.852;3.816;2022-10-16T07:44:19;19.20;99.90
22765;DHT22;11549;50.852;3.816;2022-10-16T07:46:47;19.60;99.90
22765;DHT22;11549;50.852;3.816;2022-10-16T07:49:15;20.10;99.90
22765;DHT22;11549;50.852;3.816;2022-10-16T07:51:44;20.50;99.90
22765;DHT22;11549;50.852;3.816;2022-10-16T07:54:13;20.80;99.90
22765;DHT22;11549;50.852;3.816;2022-10-16T07:56:42;20.90;99.90
22765;DHT22;11549;50.852;3.816;2022-10-16T07:59:10;21.00;99.90
22765;DHT22;11549;50.852;3.816;2022-10-16T08:01:38;21.20;99.90
22765;DHT22;11549;50.852;3.816;2022-10-16T08:04:09;21.50;99.90
22765;DHT22;11549;50.852;3.816;2022-10-16T08:06:39;21.60;99.90
22765;DHT22;11549;50.852;3.816;2022-10-16T08:09:08;21.90;99.90
22765;DHT22;11549;50.852;3.816;2022-10-16T08:11:37;22.30;99.90
22765;DHT22;11549;50.852;3.816;2022-10-16T08:14:06;22.60;99.90
22765;DHT22;11549;50.852;3.816;2022-10-16T08:16:34;22.80;99.90
22765;DHT22;11549;50.852;3.816;2022-10-16T08:19:02;22.90;99.90
22765;DHT22;11549;50.852;3.816;2022-10-16T08:21:31;23.20;99.90
22765;DHT22;11549;50.852;3.816;2022-10-16T08:23:59;23.40;99.90
22765;DHT22;11549;50.852;3.816;2022-10-16T08:26:27;23.60;99.90
22765;DHT22;11549;50.852;3.816;2022-10-16T08:28:57;23.70;99.90
22765;DHT22;11549;50.852;3.816;2022-10-16T08:31:25;23.80;99.90
22765;DHT22;11549;50.852;3.816;2022-10-16T08:33:54;24.00;99.90
22765;DHT22;11549;50.852;3.816;2022-10-16T08:36:22;24.30;99.90
22765;DHT22;11549;50.852;3.816;2022-10-16T08:38:50;24.50;99.90
22765;DHT22;11549;50.852;3.816;2022-10-16T08:41:35;24.80;99.90
22765;DHT22;11549;50.852;3.816;2022-10-16T08:44:32;25.00;99.90
22765;DHT22;11549;50.852;3.816;2022-10-16T08:47:09;25.20;99.90
22765;DHT22;11549;50.852;3.816;2022-10-16T08:49:43;25.00;99.90
22765;DHT22;11549;50.852;3.816;2022-10-16T08:52:18;24.80;99.90
22765;DHT22;11549;50.852;3.816;2022-10-16T08:54:48;24.60;99.90
22765;DHT22;11549;50.852;3.816;2022-10-16T08:57:21;24.30;99.90
22765;DHT22;11549;50.852;3.816;2022-10-16T08:59:52;24.10;99.90
22765;DHT22;11549;50.852;3.816;2022-10-16T09:02:26;23.90;99.90
22765;DHT22;11549;50.852;3.816;2022-10-16T09:05:09;23.90;99.90
22765;DHT22;11549;50.852;3.816;2022-10-16T09:07:46;24.10;99.90
22765;DHT22;11549;50.852;3.816;2022-10-16T09:10:27;24.30;99.90
22765;DHT22;11549;50.852;3.816;2022-10-16T09:13:06;24.30;99.90
22765;DHT22;11549;50.852;3.816;2022-10-16T09:15:44;24.70;99.90
22765;DHT22;11549;50.852;3.816;2022-10-16T09:18:20;24.90;99.90
22765;DHT22;11549;50.852;3.816;2022-10-16T09:21:02;25.20;99.90
22765;DHT22;11549;50.852;3.816;2022-10-16T09:23:35;25.20;99.90
22765;DHT22;11549;50.852;3.816;2022-10-16T09:26:05;25.30;99.90
22765;DHT22;11549;50.852;3.816;2022-10-16T09:28:37;25.10;99.90
22765;DHT22;11549;50.852;3.816;2022-10-16T09:31:13;25.40;99.90
22765;DHT22;11549;50.852;3.816;2022-10-16T09:33:45;25.60;99.90
22765;DHT22;11549;50.852;3.816;2022-10-16T09:36:15;25.50;99.90
22765;DHT22;11549;50.852;3.816;2022-10-16T09:38:43;25.60;99.90
22765;DHT22;11549;50.852;3.816;2022-10-16T09:41:16;25.60;99.90
22765;DHT22;11549;50.852;3.816;2022-10-16T09:43:52;25.60;99.90
22765;DHT22;11549;50.852;3.816;2022-10-16T09:46:27;25.80;99.90
22765;DHT22;11549;50.852;3.816;2022-10-16T09:48:57;26.00;99.90
22765;DHT22;11549;50.852;3.816;2022-10-16T09:51:32;25.80;99.90
22765;DHT22;11549;50.852;3.816;2022-10-16T09:54:14;25.50;99.90
22765;DHT22;11549;50.852;3.816;2022-10-16T09:56:43;25.70;99.90
22765;DHT22;11549;50.852;3.816;2022-10-16T09:59:17;25.80;99.90
22765;DHT22;11549;50.852;3.816;2022-10-16T10:01:49;26.00;99.90
22765;DHT22;11549;50.852;3.816;2022-10-16T10:04:23;25.80;99.90
22765;DHT22;11549;50.852;3.816;2022-10-16T10:07:03;25.60;99.90
22765;DHT22;11549;50.852;3.816;2022-10-16T10:09:33;25.20;99.90
22765;DHT22;11549;50.852;3.816;2022-10-16T10:12:05;25.20;99.90
22765;DHT22;11549;50.852;3.816;2022-10-16T10:14:38;25.20;99.90
22765;DHT22;11549;50.852;3.816;2022-10-16T10:17:15;25.40;99.90
22765;DHT22;11549;50.852;3.816;2022-10-16T10:19:50;25.40;99.90
22765;DHT22;11549;50.852;3.816;2022-10-16T10:22:40;25.70;99.90
22765;DHT22;11549;50.852;3.816;2022-10-16T10:25:19;25.80;99.90
22765;DHT22;11549;50.852;3.816;2022-10-16T10:28:21;25.30;99.80
22765;DHT22;11549;50.852;3.816;2022-10-16T10:30:58;25.00;99.90
22765;DHT22;11549;50.852;3.816;2022-10-16T10:33:37;24.70;99.90
22765;DHT22;11549;50.852;3.816;2022-10-16T10:36:18;24.90;99.90
22765;DHT22;11549;50.852;3.816;2022-10-16T10:38:51;25.00;99.90
22765;DHT22;11549;50.852;3.816;2022-10-16T10:41:40;24.50;99.90
22765;DHT22;11549;50.852;3.816;2022-10-16T10:44:16;24.70;99.90
22765;DHT22;11549;50.852;3.816;2022-10-16T10:46:51;24.70;99.90
22765;DHT22;11549;50.852;3.816;2022-10-16T10:49:31;24.80;99.90
22765;DHT22;11549;50.852;3.816;2022-10-16T10:52:26;25.00;99.90
22765;DHT22;11549;50.852;3.816;2022-10-16T10:55:10;25.10;99.90
22765;DHT22;11549;50.852;3.816;2022-10-16T10:57:46;25.30;99.50
22765;DHT22;11549;50.852;3.816;2022-10-16T11:00:28;25.30;99.90
22765;DHT22;11549;50.852;3.816;2022-10-16T11:03:08;25.60;99.90
22765;DHT22;11549;50.852;3.816;2022-10-16T11:05:44;25.60;99.30
22765;DHT22;11549;50.852;3.816;2022-10-16T11:08:18;25.50;99.60
22765;DHT22;11549;50.852;3.816;2022-10-16T11:10:52;25.00;99.90
22765;DHT22;11549;50.852;3.816;2022-10-16T11:13:30;25.00;98.60
22765;DHT22;11549;50.852;3.816;2022-10-16T11:16:03;24.60;98.80
22765;DHT22;11549;50.852;3.816;2022-10-16T11:18:43;24.10;99.20
22765;DHT22;11549;50.852;3.816;2022-10-16T11:21:18;24.00;99.90
22765;DHT22;11549;50.852;3.816;2022-10-16T11:23:53;24.20;99.90
22765;DHT22;11549;50.852;3.816;2022-10-16T11:26:26;24.40;99.90
22765;DHT22;11549;50.852;3.816;2022-10-16T11:29:00;24.70;99.90
22765;DHT22;11549;50.852;3.816;2022-10-16T11:31:34;24.80;99.90
22765;DHT22;11549;50.852;3.816;2022-10-16T11:34:09;24.90;99.90
22765;DHT22;11549;50.852;3.816;2022-10-16T11:36:49;25.10;98.90
22765;DHT22;11549;50.852;3.816;2022-10-16T11:39:21;25.10;96.80
22765;DHT22;11549;50.852;3.816;2022-10-16T11:41:53;24.70;98.00
22765;DHT22;11549;50.852;3.816;2022-10-16T11:47:30;24.80;99.30
22765;DHT22;11549;50.852;3.816;2022-10-16T11:50:23;24.40;97.60
22765;DHT22;11549;50.852;3.816;2022-10-16T11:53:00;24.10;98.80
22765;DHT22;11549;50.852;3.816;2022-10-16T11:55:33;23.80;99.30
22765;DHT22;11549;50.852;3.816;2022-10-16T11:58:17;23.60;99.90
22765;DHT22;11549;50.852;3.816;2022-10-16T12:00:54;23.80;99.90
22765;DHT22;11549;50.852;3.816;2022-10-16T12:03:29;23.90;99.90
22765;DHT22;11549;50.852;3.816;2022-10-16T12:06:12;24.00;99.90
22765;DHT22;11549;50.852;3.816;2022-10-16T12:08:49;24.00;99.90
22765;DHT22;11549;50.852;3.816;2022-10-16T12:11:30;23.70;99.90
22765;DHT22;11549;50.852;3.816;2022-10-16T12:17:26;23.20;99.90
22765;DHT22;11549;50.852;3.816;2022-10-16T12:19:59;22.90;99.90
22765;DHT22;11549;50.852;3.816;2022-10-16T12:22:30;22.70;99.90
22765;DHT22;11549;50.852;3.816;2022-10-16T12:25:04;22.60;99.90
22765;DHT22;11549;50.852;3.816;2022-10-16T12:27:35;22.70;99.90
22765;DHT22;11549;50.852;3.816;2022-10-16T12:30:05;22.90;99.90
22765;DHT22;11549;50.852;3.816;2022-10-16T12:32:37;22.90;99.90
22765;DHT22;11549;50.852;3.816;2022-10-16T12:35:19;23.20;99.90
22765;DHT22;11549;50.852;3.816;2022-10-16T12:37:49;23.20;99.90
22765;DHT22;11549;50.852;3.816;2022-10-16T12:40:27;23.00;99.90
22765;DHT22;11549;50.852;3.816;2022-10-16T12:42:56;22.70;99.90
22765;DHT22;11549;50.852;3.816;2022-10-16T12:45:28;22.60;99.90
22765;DHT22;11549;50.852;3.816;2022-10-16T12:47:59;22.60;99.90
22765;DHT22;11549;50.852;3.816;2022-10-16T12:50:33;22.60;99.90
22765;DHT22;11549;50.852;3.816;2022-10-16T12:53:03;22.50;99.90
22765;DHT22;11549;50.852;3.816;2022-10-16T12:55:48;22.70;99.90
22765;DHT22;11549;50.852;3.816;2022-10-16T12:58:41;22.70;99.90
22765;DHT22;11549;50.852;3.816;2022-10-16T13:01:22;22.70;99.90
22765;DHT22;11549;50.852;3.816;2022-10-16T13:04:06;22.40;99.90
22765;DHT22;11549;50.852;3.816;2022-10-16T13:06:45;21.80;99.90
22765;DHT22;11549;50.852;3.816;2022-10-16T13:09:36;21.50;99.90
22765;DHT22;11549;50.852;3.816;2022-10-16T13:12:18;21.10;99.90
22765;DHT22;11549;50.852;3.816;2022-10-16T13:17:54;20.90;99.90
22765;DHT22;11549;50.852;3.816;2022-10-16T13:20:31;20.90;99.90
22765;DHT22;11549;50.852;3.816;2022-10-16T13:23:13;20.90;99.90
22765;DHT22;11549;50.852;3.816;2022-10-16T13:25:53;20.90;99.90
22765;DHT22;11549;50.852;3.816;2022-10-16T13:28:31;20.80;99.90
22765;DHT22;11549;50.852;3.816;2022-10-16T13:31:02;20.70;99.90
22765;DHT22;11549;50.852;3.816;2022-10-16T13:33:38;20.70;99.90
22765;DHT22;11549;50.852;3.816;2022-10-16T13:36:20;20.80;99.90
22765;DHT22;11549;50.852;3.816;2022-10-16T13:38:49;20.50;99.90
22765;DHT22;11549;50.852;3.816;2022-10-16T13:41:27;20.50;99.90
22765;DHT22;11549;50.852;3.816;2022-10-16T13:43:57;20.50;99.90
22765;DHT22;11549;50.852;3.816;2022-10-16T13:46:25;20.40;99.90
22765;DHT22;11549;50.852;3.816;2022-10-16T13:48:59;20.40;99.90
22765;DHT22;11549;50.852;3.816;2022-10-16T13:51:32;20.40;99.90
22765;DHT22;11549;50.852;3.816;2022-10-16T13:54:04;20.50;99.90
22765;DHT22;11549;50.852;3.816;2022-10-16T13:56:32;20.40;99.90
22765;DHT22;11549;50.852;3.816;2022-10-16T13:59:04;20.40;99.90
22765;DHT22;11549;50.852;3.816;2022-10-16T14:01:42;20.40;99.90
22765;DHT22;11549;50.852;3.816;2022-10-16T14:04:12;20.50;99.90
22765;DHT22;11549;50.852;3.816;2022-10-16T14:06:43;20.50;99.90
22765;DHT22;11549;50.852;3.816;2022-10-16T14:09:21;20.40;99.90
22765;DHT22;11549;50.852;3.816;2022-10-16T14:11:51;20.30;99.90
22765;DHT22;11549;50.852;3.816;2022-10-16T14:14:22;20.40;99.90
22765;DHT22;11549;50.852;3.816;2022-10-16T14:16:51;20.40;99.90
22765;DHT22;11549;50.852;3.816;2022-10-16T14:19:22;20.40;99.90
22765;DHT22;11549;50.852;3.816;2022-10-16T14:21:51;20.40;99.90
22765;DHT22;11549;50.852;3.816;2022-10-16T14:24:26;20.10;99.90
22765;DHT22;11549;50.852;3.816;2022-10-16T14:26:59;20.00;99.90
22765;DHT22;11549;50.852;3.816;2022-10-16T14:29:30;20.00;99.90
22765;DHT22;11549;50.852;3.816;2022-10-16T14:32:00;20.00;99.90
22765;DHT22;11549;50.852;3.816;2022-10-16T14:34:31;19.80;99.90
22765;DHT22;11549;50.852;3.816;2022-10-16T14:37:02;19.70;99.90
22765;DHT22;11549;50.852;3.816;2022-10-16T14:39:35;19.70;99.90
22765;DHT22;11549;50.852;3.816;2022-10-16T14:42:04;19.70;99.90
22765;DHT22;11549;50.852;3.816;2022-10-16T14:44:33;19.80;99.90
22765;DHT22;11549;50.852;3.816;2022-10-16T14:47:12;19.50;99.90
22765;DHT22;11549;50.852;3.816;2022-10-16T14:49:41;19.50;99.90
22765;DHT22;11549;50.852;3.816;2022-10-16T14:52:10;19.40;99.90
22765;DHT22;11549;50.852;3.816;2022-10-16T14:54:40;19.60;99.90
22765;DHT22;11549;50.852;3.816;2022-10-16T14:57:16;19.50;99.90
22765;DHT22;11549;50.852;3.816;2022-10-16T14:59:47;19.60;99.90
22765;DHT22;11549;50.852;3.816;2022-10-16T15:02:23;19.70;99.90
22765;DHT22;11549;50.852;3.816;2022-10-16T15:04:53;19.60;99.90
22765;DHT22;11549;50.852;3.816;2022-10-16T15:07:30;19.70;99.90
22765;DHT22;11549;50.852;3.816;2022-10-16T15:09:59;19.70;99.90
22765;DHT22;11549;50.852;3.816;2022-10-16T15:12:27;19.60;99.90
22765;DHT22;11549;50.852;3.816;2022-10-16T15:14:57;19.50;99.90
22765;DHT22;11549;50.852;3.816;2022-10-16T15:17:25;19.50;99.90
22765;DHT22;11549;50.852;3.816;2022-10-16T15:19:54;19.40;99.90
22765;DHT22;11549;50.852;3.816;2022-10-16T15:22:22;19.40;99.90
22765;DHT22;11549;50.852;3.816;2022-10-16T15:24:50;19.50;99.90
22765;DHT22;11549;50.852;3.816;2022-10-16T15:27:19;19.50;99.90
22765;DHT22;11549;50.852;3.816;2022-10-16T15:29:47;19.50;99.90
22765;DHT22;11549;50.852;3.816;2022-10-16T15:32:17;19.50;99.90
22765;DHT22;11549;50.852;3.816;2022-10-16T15:34:45;19.50;99.90
22765;DHT22;11549;50.852;3.816;2022-10-16T15:37:13;19.50;99.90
22765;DHT22;11549;50.852;3.816;2022-10-16T15:39:41;19.40;99.90
22765;DHT22;11549;50.852;3.816;2022-10-16T15:42:10;19.30;99.90
22765;DHT22;11549;50.852;3.816;2022-10-16T15:44:38;19.10;99.90
22765;DHT22;11549;50.852;3.816;2022-10-16T15:47:07;19.00;99.90
22765;DHT22;11549;50.852;3.816;2022-10-16T15:49:37;19.00;99.90
22765;DHT22;11549;50.852;3.816;2022-10-16T15:52:06;18.70;99.90
22765;DHT22;11549;50.852;3.816;2022-10-16T15:54:35;18.70;99.90
22765;DHT22;11549;50.852;3.816;2022-10-16T15:57:03;18.70;99.90
22765;DHT22;11549;50.852;3.816;2022-10-16T15:59:31;18.70;99.90
22765;DHT22;11549;50.852;3.816;2022-10-16T16:02:00;18.70;99.90
22765;DHT22;11549;50.852;3.816;2022-10-16T16:04:30;18.70;99.90
22765;DHT22;11549;50.852;3.816;2022-10-16T16:07:11;18.60;99.90
22765;DHT22;11549;50.852;3.816;2022-10-16T16:09:39;18.50;99.90
22765;DHT22;11549;50.852;3.816;2022-10-16T16:12:07;18.40;99.90